sensor_id;sensor_type;location;lat;lon;timestamp;temperature;humidity
4904;DHT22;2467;48.142;11.616;2023-05-07T00:00:14;15.50;99.90
4904;DHT22;2467;48.142;11.616;2023-05-07T00:00:49;15.60;99.90
4904;DHT22;2467;48.142;11.616;2023-05-07T00:01:22;15.60;99.90
4904;DHT22;2467;48.142;11.616;2023-05-07T00:01:54;15.60;99.90
4904;DHT22;2467;48.142;11.616;2023-05-07T00:02:59;15.60;99.90
4904;DHT22;2467;48.142;11.616;2023-05-07T00:03:31;15.60;99.90
4904;DHT22;2467;48.142;11.616;2023-05-07T00:04:04;15.50;99.90
4904;DHT22;2467;48.142;11.616;2023-05-07T00:04:39;15.50;99.90
4904;DHT22;2467;48.142;11.616;2023-05-07T00:05:11;15.50;99.90
4904;DHT22;2467;48.142;11.616;2023-05-07T00:05:43;15.50;99.90
4904;DHT22;2467;48.142;11.616;2023-05-07T00:06:17;15.50;99.90
4904;DHT22;2467;48.142;11.616;2023-05-07T00:06:49;15.50;99.90
4904;DHT22;2467;48.142;11.616;2023-05-07T00:07:21;15.50;99.90
4904;DHT22;2467;48.142;11.616;2023-05-07T00:07:54;15.50;99.90
4904;DHT22;2467;48.142;11.616;2023-05-07T00:08:28;15.50;99.90
4904;DHT22;2467;48.142;11.616;2023-05-07T00:08:59;15.50;99.90
4904;DHT22;2467;48.142;11.616;2023-05-07T00:09:32;15.50;99.90
4904;DHT22;2467;48.142;11.616;2023-05-07T00:10:05;15.50;99.90
4904;DHT22;2467;48.142;11.616;2023-05-07T00:10:38;15.50;99.90
4904;DHT22;2467;48.142;11.616;2023-05-07T00:11:10;15.50;99.90
4904;DHT22;2467;48.142;11.616;2023-05-07T00:11:43;15.50;99.90
4904;DHT22;2467;48.142;11.616;2023-05-07T00:12:14;15.50;99.90
4904;DHT22;2467;48.142;11.616;2023-05-07T00:12:46;15.40;99.90
4904;DHT22;2467;48.142;11.616;2023-05-07T00:13:18;15.40;99.90
4904;DHT22;2467;48.142;11.616;2023-05-07T00:13:51;15.40;99.90
4904;DHT22;2467;48.142;11.616;2023-05-07T00:14:23;15.40;99.90
4904;DHT22;2467;48.142;11.616;2023-05-07T00:14:55;15.40;99.90
4904;DHT22;2467;48.142;11.616;2023-05-07T00:15:28;15.40;99.90
4904;DHT22;2467;48.142;11.616;2023-05-07T00:15:59;15.40;99.90
4904;DHT22;2467;48.142;11.616;2023-05-07T00:16:31;15.40;99.90
4904;DHT22;2467;48.142;11.616;2023-05-07T00:17:03;15.40;99.90
4904;DHT22;2467;48.142;11.616;2023-05-07T00:17:37;15.40;99.90
4904;DHT22;2467;48.142;11.616;2023-05-07T00:18:09;15.40;99.90
4904;DHT22;2467;48.142;11.616;2023-05-07T00:18:40;15.40;99.90
4904;DHT22;2467;48.142;11.616;2023-05-07T00:19:13;15.40;99.90
4904;DHT22;2467;48.142;11.616;2023-05-07T00:19:45;15.40;99.90
4904;DHT22;2467;48.142;11.616;2023-05-07T00:20:18;15.40;99.90
4904;DHT22;2467;48.142;11.616;2023-05-07T00:20:49;15.40;99.90
4904;DHT22;2467;48.142;11.616;2023-05-07T00:21:24;15.40;99.90
4904;DHT22;2467;48.142;11.616;2023-05-07T00:21:58;15.30;99.90
4904;DHT22;2467;48.142;11.616;2023-05-07T00:22:30;15.30;99.90
4904;DHT22;2467;48.142;11.616;2023-05-07T00:23:01;15.30;99.90
4904;DHT22;2467;48.142;11.616;2023-05-07T00:23:34;15.30;99.90
4904;DHT22;2467;48.142;11.616;2023-05-07T00:24:06;15.30;99.90
4904;DHT22;2467;48.142;11.616;2023-05-07T00:24:38;15.30;99.90
4904;DHT22;2467;48.142;11.616;2023-05-07T00:25:10;15.30;99.90
4904;DHT22;2467;48.142;11.616;2023-05-07T00:25:43;15.30;99.90
4904;DHT22;2467;48.142;11.616;2023-05-07T00:26:14;15.30;99.90
4904;DHT22;2467;48.142;11.616;2023-05-07T00:26:46;15.30;99.90
4904;DHT22;2467;48.142;11.616;2023-05-07T00:27:18;15.30;99.90
4904;DHT22;2467;48.142;11.616;2023-05-07T00:27:51;15.30;99.90
4904;DHT22;2467;48.142;11.616;2023-05-07T00:28:23;15.30;99.90
4904;DHT22;2467;48.142;11.616;2023-05-07T00:28:54;15.30;99.90
4904;DHT22;2467;48.142;11.616;2023-05-07T00:29:27;15.30;99.90
4904;DHT22;2467;48.142;11.616;2023-05-07T00:29:59;15.30;99.90
4904;DHT22;2467;48.142;11.616;2023-05-07T00:30:31;15.30;99.90
4904;DHT22;2467;48.142;11.616;2023-05-07T00:31:04;15.30;99.90
4904;DHT22;2467;48.142;11.616;2023-05-07T00:31:36;15.30;99.90
4904;DHT22;2467;48.142;11.616;2023-05-07T00:32:09;15.30;99.90
4904;DHT22;2467;48.142;11.616;2023-05-07T00:32:41;15.30;99.90
4904;DHT22;2467;48.142;11.616;2023-05-07T00:33:13;15.30;99.90
4904;DHT22;2467;48.142;11.616;2023-05-07T00:33:46;15.30;99.90
4904;DHT22;2467;48.142;11.616;2023-05-07T00:34:18;15.30;99.90
4904;DHT22;2467;48.142;11.616;2023-05-07T00:34:50;15.30;99.90
4904;DHT22;2467;48.142;11.616;2023-05-07T00:35:23;15.30;99.90
4904;DHT22;2467;48.142;11.616;2023-05-07T00:35:55;15.30;99.90
4904;DHT22;2467;48.142;11.616;2023-05-07T00:36:29;15.30;99.90
4904;DHT22;2467;48.142;11.616;2023-05-07T00:37:01;15.30;99.90
4904;DHT22;2467;48.142;11.616;2023-05-07T00:37:37;15.30;99.90
4904;DHT22;2467;48.142;11.616;2023-05-07T00:38:09;15.30;99.90
4904;DHT22;2467;48.142;11.616;2023-05-07T00:38:41;15.20;99.90
4904;DHT22;2467;48.142;11.616;2023-05-07T00:39:13;15.20;99.90
4904;DHT22;2467;48.142;11.616;2023-05-07T00:39:45;15.20;99.90
4904;DHT22;2467;48.142;11.616;2023-05-07T00:40:17;15.20;99.90
4904;DHT22;2467;48.142;11.616;2023-05-07T00:40:50;15.20;99.90
4904;DHT22;2467;48.142;11.616;2023-05-07T00:41:23;15.10;99.90
4904;DHT22;2467;48.142;11.616;2023-05-07T00:41:54;15.10;99.90
4904;DHT22;2467;48.142;11.616;2023-05-07T00:42:27;15.00;99.90
4904;DHT22;2467;48.142;11.616;2023-05-07T00:43:00;15.10;99.90
4904;DHT22;2467;48.142;11.616;2023-05-07T00:43:32;15.00;99.90
4904;DHT22;2467;48.142;11.616;2023-05-07T00:44:04;15.00;99.90
4904;DHT22;2467;48.142;11.616;2023-05-07T00:44:38;15.10;99.90
4904;DHT22;2467;48.142;11.616;2023-05-07T00:45:10;15.10;99.90
4904;DHT22;2467;48.142;11.616;2023-05-07T00:45:42;15.00;99.90
4904;DHT22;2467;48.142;11.616;2023-05-07T00:46:14;15.10;99.90
4904;DHT22;2467;48.142;11.616;2023-05-07T00:46:48;15.10;99.90
4904;DHT22;2467;48.142;11.616;2023-05-07T00:47:21;15.10;99.90
4904;DHT22;2467;48.142;11.616;2023-05-07T00:47:54;15.10;99.90
4904;DHT22;2467;48.142;11.616;2023-05-07T00:48:27;15.10;99.90
4904;DHT22;2467;48.142;11.616;2023-05-07T00:48:59;15.10;99.90
4904;DHT22;2467;48.142;11.616;2023-05-07T00:49:37;15.10;99.90
4904;DHT22;2467;48.142;11.616;2023-05-07T00:50:10;15.10;99.90
4904;DHT22;2467;48.142;11.616;2023-05-07T00:50:44;15.10;99.90
4904;DHT22;2467;48.142;11.616;2023-05-07T00:51:17;15.10;99.90
4904;DHT22;2467;48.142;11.616;2023-05-07T00:51:52;15.10;99.90
4904;DHT22;2467;48.142;11.616;2023-05-07T00:52:25;15.10;99.90
4904;DHT22;2467;48.142;11.616;2023-05-07T00:52:58;15.10;99.90
4904;DHT22;2467;48.142;11.616;2023-05-07T00:53:31;15.10;99.90
4904;DHT22;2467;48.142;11.616;2023-05-07T00:54:03;15.10;99.90
4904;DHT22;2467;48.142;11.616;2023-05-07T00:54:35;15.00;99.90
4904;DHT22;2467;48.142;11.616;2023-05-07T00:55:08;15.00;99.90
4904;DHT22;2467;48.142;11.616;2023-05-07T00:55:41;15.00;99.90
4904;DHT22;2467;48.142;11.616;2023-05-07T00:56:13;15.00;99.90
4904;DHT22;2467;48.142;11.616;2023-05-07T00:56:46;15.00;99.90
4904;DHT22;2467;48.142;11.616;2023-05-07T00:57:19;14.90;99.90
4904;DHT22;2467;48.142;11.616;2023-05-07T00:57:52;14.90;99.90
4904;DHT22;2467;48.142;11.616;2023-05-07T00:58:25;14.90;99.90
4904;DHT22;2467;48.142;11.616;2023-05-07T00:58:57;14.90;99.90
4904;DHT22;2467;48.142;11.616;2023-05-07T00:59:30;14.90;99.90
4904;DHT22;2467;48.142;11.616;2023-05-07T01:00:05;14.90;99.90
4904;DHT22;2467;48.142;11.616;2023-05-07T01:00:37;14.90;99.90
4904;DHT22;2467;48.142;11.616;2023-05-07T01:01:09;14.90;99.90
4904;DHT22;2467;48.142;11.616;2023-05-07T01:01:42;14.90;99.90
4904;DHT22;2467;48.142;11.616;2023-05-07T01:02:14;14.90;99.90
4904;DHT22;2467;48.142;11.616;2023-05-07T01:02:46;14.90;99.90
4904;DHT22;2467;48.142;11.616;2023-05-07T01:03:19;14.90;99.90
4904;DHT22;2467;48.142;11.616;2023-05-07T01:03:53;14.90;99.90
4904;DHT22;2467;48.142;11.616;2023-05-07T01:04:26;14.90;99.90
4904;DHT22;2467;48.142;11.616;2023-05-07T01:05:00;14.90;99.90
4904;DHT22;2467;48.142;11.616;2023-05-07T01:05:33;14.90;99.90
4904;DHT22;2467;48.142;11.616;2023-05-07T01:06:07;14.90;99.90
4904;DHT22;2467;48.142;11.616;2023-05-07T01:06:40;15.00;99.90
4904;DHT22;2467;48.142;11.616;2023-05-07T01:07:16;15.00;99.90
4904;DHT22;2467;48.142;11.616;2023-05-07T01:07:48;14.90;99.90
4904;DHT22;2467;48.142;11.616;2023-05-07T01:08:22;14.90;99.90
4904;DHT22;2467;48.142;11.616;2023-05-07T01:08:57;15.00;99.90
4904;DHT22;2467;48.142;11.616;2023-05-07T01:09:29;15.00;99.90
4904;DHT22;2467;48.142;11.616;2023-05-07T01:10:02;15.00;99.90
4904;DHT22;2467;48.142;11.616;2023-05-07T01:10:35;15.00;99.90
4904;DHT22;2467;48.142;11.616;2023-05-07T01:11:08;15.00;99.90
4904;DHT22;2467;48.142;11.616;2023-05-07T01:11:40;15.00;99.90
4904;DHT22;2467;48.142;11.616;2023-05-07T01:12:14;15.00;99.90
4904;DHT22;2467;48.142;11.616;2023-05-07T01:12:47;15.00;99.90
4904;DHT22;2467;48.142;11.616;2023-05-07T01:13:20;15.00;99.90
4904;DHT22;2467;48.142;11.616;2023-05-07T01:13:53;15.10;99.90
4904;DHT22;2467;48.142;11.616;2023-05-07T01:14:25;15.00;99.90
4904;DHT22;2467;48.142;11.616;2023-05-07T01:14:57;15.00;99.90
4904;DHT22;2467;48.142;11.616;2023-05-07T01:15:30;15.00;99.90
4904;DHT22;2467;48.142;11.616;2023-05-07T01:16:03;15.00;99.90
4904;DHT22;2467;48.142;11.616;2023-05-07T01:16:36;15.00;99.90
4904;DHT22;2467;48.142;11.616;2023-05-07T01:17:09;15.00;99.90
4904;DHT22;2467;48.142;11.616;2023-05-07T01:17:42;15.00;99.90
4904;DHT22;2467;48.142;11.616;2023-05-07T01:18:14;15.00;99.90
4904;DHT22;2467;48.142;11.616;2023-05-07T01:18:47;15.00;99.90
4904;DHT22;2467;48.142;11.616;2023-05-07T01:19:20;15.00;99.90
4904;DHT22;2467;48.142;11.616;2023-05-07T01:19:52;15.00;99.90
4904;DHT22;2467;48.142;11.616;2023-05-07T01:20:25;15.00;99.90
4904;DHT22;2467;48.142;11.616;2023-05-07T01:20:59;15.00;99.90
4904;DHT22;2467;48.142;11.616;2023-05-07T01:21:33;15.00;99.90
4904;DHT22;2467;48.142;11.616;2023-05-07T01:22:08;15.00;99.90
4904;DHT22;2467;48.142;11.616;2023-05-07T01:22:43;15.00;99.90
4904;DHT22;2467;48.142;11.616;2023-05-07T01:23:15;15.00;99.90
4904;DHT22;2467;48.142;11.616;2023-05-07T01:23:48;15.00;99.90
4904;DHT22;2467;48.142;11.616;2023-05-07T01:24:21;15.00;99.90
4904;DHT22;2467;48.142;11.616;2023-05-07T01:24:53;15.00;99.90
4904;DHT22;2467;48.142;11.616;2023-05-07T01:25:27;15.00;99.90
4904;DHT22;2467;48.142;11.616;2023-05-07T01:26:00;15.00;99.90
4904;DHT22;2467;48.142;11.616;2023-05-07T01:26:32;15.00;99.90
4904;DHT22;2467;48.142;11.616;2023-05-07T01:27:05;15.00;99.90
4904;DHT22;2467;48.142;11.616;2023-05-07T01:27:36;15.00;99.90
4904;DHT22;2467;48.142;11.616;2023-05-07T01:28:08;15.00;99.90
4904;DHT22;2467;48.142;11.616;2023-05-07T01:28:41;15.00;99.90
4904;DHT22;2467;48.142;11.616;2023-05-07T01:29:13;15.00;99.90
4904;DHT22;2467;48.142;11.616;2023-05-07T01:29:45;15.00;99.90
4904;DHT22;2467;48.142;11.616;2023-05-07T01:30:17;15.00;99.90
4904;DHT22;2467;48.142;11.616;2023-05-07T01:30:53;15.00;99.90
4904;DHT22;2467;48.142;11.616;2023-05-07T01:31:27;15.00;99.90
4904;DHT22;2467;48.142;11.616;2023-05-07T01:32:00;15.00;99.90
4904;DHT22;2467;48.142;11.616;2023-05-07T01:32:37;14.90;99.90
4904;DHT22;2467;48.142;11.616;2023-05-07T01:33:11;14.90;99.90
4904;DHT22;2467;48.142;11.616;2023-05-07T01:33:46;15.00;99.90
4904;DHT22;2467;48.142;11.616;2023-05-07T01:34:21;14.90;99.90
4904;DHT22;2467;48.142;11.616;2023-05-07T01:34:54;14.90;99.90
4904;DHT22;2467;48.142;11.616;2023-05-07T01:35:30;14.90;99.90
4904;DHT22;2467;48.142;11.616;2023-05-07T01:36:06;15.00;99.90
4904;DHT22;2467;48.142;11.616;2023-05-07T01:36:39;15.00;99.90
4904;DHT22;2467;48.142;11.616;2023-05-07T01:37:12;15.00;99.90
4904;DHT22;2467;48.142;11.616;2023-05-07T01:37:46;15.00;99.90
4904;DHT22;2467;48.142;11.616;2023-05-07T01:38:19;15.00;99.90
4904;DHT22;2467;48.142;11.616;2023-05-07T01:38:53;15.00;99.90
4904;DHT22;2467;48.142;11.616;2023-05-07T01:39:26;15.00;99.90
4904;DHT22;2467;48.142;11.616;2023-05-07T01:39:58;15.00;99.90
4904;DHT22;2467;48.142;11.616;2023-05-07T01:40:31;15.00;99.90
4904;DHT22;2467;48.142;11.616;2023-05-07T01:41:04;14.90;99.90
4904;DHT22;2467;48.142;11.616;2023-05-07T01:41:36;14.90;99.90
4904;DHT22;2467;48.142;11.616;2023-05-07T01:42:09;14.90;99.90
4904;DHT22;2467;48.142;11.616;2023-05-07T01:42:41;14.90;99.90
4904;DHT22;2467;48.142;11.616;2023-05-07T01:43:14;14.90;99.90
4904;DHT22;2467;48.142;11.616;2023-05-07T01:43:47;15.00;99.90
4904;DHT22;2467;48.142;11.616;2023-05-07T01:44:20;14.90;99.90
4904;DHT22;2467;48.142;11.616;2023-05-07T01:44:52;14.90;99.90
4904;DHT22;2467;48.142;11.616;2023-05-07T01:45:25;14.90;99.90
4904;DHT22;2467;48.142;11.616;2023-05-07T01:45:58;14.90;99.90
4904;DHT22;2467;48.142;11.616;2023-05-07T01:46:32;14.90;99.90
4904;DHT22;2467;48.142;11.616;2023-05-07T01:47:04;14.90;99.90
4904;DHT22;2467;48.142;11.616;2023-05-07T01:47:39;14.90;99.90
4904;DHT22;2467;48.142;11.616;2023-05-07T01:48:12;14.80;99.90
4904;DHT22;2467;48.142;11.616;2023-05-07T01:48:45;14.80;99.90
4904;DHT22;2467;48.142;11.616;2023-05-07T01:49:18;14.80;99.90
4904;DHT22;2467;48.142;11.616;2023-05-07T01:49:50;14.80;99.90
4904;DHT22;2467;48.142;11.616;2023-05-07T01:50:23;14.80;99.90
4904;DHT22;2467;48.142;11.616;2023-05-07T01:50:55;14.70;99.90
4904;DHT22;2467;48.142;11.616;2023-05-07T01:51:28;14.80;99.90
4904;DHT22;2467;48.142;11.616;2023-05-07T01:52:00;14.80;99.90
4904;DHT22;2467;48.142;11.616;2023-05-07T01:52:32;14.80;99.90
4904;DHT22;2467;48.142;11.616;2023-05-07T01:53:06;14.80;99.90
4904;DHT22;2467;48.142;11.616;2023-05-07T01:53:39;14.80;99.90
4904;DHT22;2467;48.142;11.616;2023-05-07T01:54:12;14.80;99.90
4904;DHT22;2467;48.142;11.616;2023-05-07T01:54:44;14.80;99.90
4904;DHT22;2467;48.142;11.616;2023-05-07T01:55:17;14.80;99.90
4904;DHT22;2467;48.142;11.616;2023-05-07T01:55:48;14.80;99.90
4904;DHT22;2467;48.142;11.616;2023-05-07T01:56:21;14.70;99.90
4904;DHT22;2467;48.142;11.616;2023-05-07T01:56:53;14.70;99.90
4904;DHT22;2467;48.142;11.616;2023-05-07T01:57:25;14.80;99.90
4904;DHT22;2467;48.142;11.616;2023-05-07T01:57:57;14.70;99.90
4904;DHT22;2467;48.142;11.616;2023-05-07T01:58:30;14.70;99.90
4904;DHT22;2467;48.142;11.616;2023-05-07T01:59:01;14.70;99.90
4904;DHT22;2467;48.142;11.616;2023-05-07T01:59:33;14.70;99.90
4904;DHT22;2467;48.142;11.616;2023-05-07T02:00:06;14.70;99.90
4904;DHT22;2467;48.142;11.616;2023-05-07T02:00:41;14.70;99.90
4904;DHT22;2467;48.142;11.616;2023-05-07T02:01:13;14.70;99.90
4904;DHT22;2467;48.142;11.616;2023-05-07T02:01:45;14.70;99.90
4904;DHT22;2467;48.142;11.616;2023-05-07T02:02:19;14.70;99.90
4904;DHT22;2467;48.142;11.616;2023-05-07T02:02:51;14.70;99.90
4904;DHT22;2467;48.142;11.616;2023-05-07T02:03:24;14.70;99.90
4904;DHT22;2467;48.142;11.616;2023-05-07T02:03:57;14.70;99.90
4904;DHT22;2467;48.142;11.616;2023-05-07T02:04:29;14.70;99.90
4904;DHT22;2467;48.142;11.616;2023-05-07T02:05:02;14.70;99.90
4904;DHT22;2467;48.142;11.616;2023-05-07T02:05:33;14.60;99.90
4904;DHT22;2467;48.142;11.616;2023-05-07T02:06:05;14.60;99.90
4904;DHT22;2467;48.142;11.616;2023-05-07T02:06:38;14.60;99.90
4904;DHT22;2467;48.142;11.616;2023-05-07T02:07:10;14.60;99.90
4904;DHT22;2467;48.142;11.616;2023-05-07T02:07:42;14.60;99.90
4904;DHT22;2467;48.142;11.616;2023-05-07T02:08:16;14.60;99.90
4904;DHT22;2467;48.142;11.616;2023-05-07T02:08:48;14.60;99.90
4904;DHT22;2467;48.142;11.616;2023-05-07T02:09:20;14.60;99.90
4904;DHT22;2467;48.142;11.616;2023-05-07T02:09:52;14.60;99.90
4904;DHT22;2467;48.142;11.616;2023-05-07T02:10:25;14.60;99.90
4904;DHT22;2467;48.142;11.616;2023-05-07T02:10:57;14.60;99.90
4904;DHT22;2467;48.142;11.616;2023-05-07T02:11:28;14.60;99.90
4904;DHT22;2467;48.142;11.616;2023-05-07T02:12:00;14.60;99.90
4904;DHT22;2467;48.142;11.616;2023-05-07T02:12:33;14.60;99.90
4904;DHT22;2467;48.142;11.616;2023-05-07T02:13:05;14.60;99.90
4904;DHT22;2467;48.142;11.616;2023-05-07T02:13:37;14.60;99.90
4904;DHT22;2467;48.142;11.616;2023-05-07T02:14:09;14.70;99.90
4904;DHT22;2467;48.142;11.616;2023-05-07T02:14:42;14.60;99.90
4904;DHT22;2467;48.142;11.616;2023-05-07T02:15:14;14.70;99.90
4904;DHT22;2467;48.142;11.616;2023-05-07T02:15:45;14.70;99.90
4904;DHT22;2467;48.142;11.616;2023-05-07T02:16:21;14.70;99.90
4904;DHT22;2467;48.142;11.616;2023-05-07T02:16:54;14.70;99.90
4904;DHT22;2467;48.142;11.616;2023-05-07T02:17:27;14.70;99.90
4904;DHT22;2467;48.142;11.616;2023-05-07T02:18:04;14.70;99.90
4904;DHT22;2467;48.142;11.616;2023-05-07T02:18:36;14.70;99.90
4904;DHT22;2467;48.142;11.616;2023-05-07T02:19:08;14.70;99.90
4904;DHT22;2467;48.142;11.616;2023-05-07T02:19:41;14.70;99.90
4904;DHT22;2467;48.142;11.616;2023-05-07T02:20:13;14.70;99.90
4904;DHT22;2467;48.142;11.616;2023-05-07T02:20:45;14.70;99.90
4904;DHT22;2467;48.142;11.616;2023-05-07T02:21:18;14.70;99.90
4904;DHT22;2467;48.142;11.616;2023-05-07T02:21:50;14.70;99.90
4904;DHT22;2467;48.142;11.616;2023-05-07T02:22:22;14.70;99.90
4904;DHT22;2467;48.142;11.616;2023-05-07T02:22:55;14.70;99.90
4904;DHT22;2467;48.142;11.616;2023-05-07T02:23:29;14.80;99.90
4904;DHT22;2467;48.142;11.616;2023-05-07T02:24:00;14.80;99.90
4904;DHT22;2467;48.142;11.616;2023-05-07T02:24:32;14.70;99.90
4904;DHT22;2467;48.142;11.616;2023-05-07T02:25:06;14.70;99.90
4904;DHT22;2467;48.142;11.616;2023-05-07T02:25:38;14.70;99.90
4904;DHT22;2467;48.142;11.616;2023-05-07T02:26:10;14.70;99.90
4904;DHT22;2467;48.142;11.616;2023-05-07T02:26:43;14.70;99.90
4904;DHT22;2467;48.142;11.616;2023-05-07T02:27:15;14.70;99.90
4904;DHT22;2467;48.142;11.616;2023-05-07T02:27:47;14.70;99.90
4904;DHT22;2467;48.142;11.616;2023-05-07T02:28:18;14.70;99.90
4904;DHT22;2467;48.142;11.616;2023-05-07T02:28:51;14.70;99.90
4904;DHT22;2467;48.142;11.616;2023-05-07T02:29:23;14.70;99.90
4904;DHT22;2467;48.142;11.616;2023-05-07T02:29:55;14.70;99.90
4904;DHT22;2467;48.142;11.616;2023-05-07T02:30:27;14.70;99.90
4904;DHT22;2467;48.142;11.616;2023-05-07T02:31:00;14.70;99.90
4904;DHT22;2467;48.142;11.616;2023-05-07T02:31:32;14.70;99.90
4904;DHT22;2467;48.142;11.616;2023-05-07T02:32:05;14.70;99.90
4904;DHT22;2467;48.142;11.616;2023-05-07T02:32:38;14.70;99.90
4904;DHT22;2467;48.142;11.616;2023-05-07T02:33:10;14.70;99.90
4904;DHT22;2467;48.142;11.616;2023-05-07T02:33:44;14.70;99.90
4904;DHT22;2467;48.142;11.616;2023-05-07T02:34:18;14.70;99.90
4904;DHT22;2467;48.142;11.616;2023-05-07T02:34:50;14.70;99.90
4904;DHT22;2467;48.142;11.616;2023-05-07T02:35:23;14.70;99.90
4904;DHT22;2467;48.142;11.616;2023-05-07T02:35:56;14.70;99.90
4904;DHT22;2467;48.142;11.616;2023-05-07T02:36:28;14.70;99.90
4904;DHT22;2467;48.142;11.616;2023-05-07T02:37:00;14.70;99.90
4904;DHT22;2467;48.142;11.616;2023-05-07T02:37:32;14.70;99.90
4904;DHT22;2467;48.142;11.616;2023-05-07T02:38:04;14.70;99.90
4904;DHT22;2467;48.142;11.616;2023-05-07T02:38:37;14.70;99.90
4904;DHT22;2467;48.142;11.616;2023-05-07T02:39:10;14.80;99.90
4904;DHT22;2467;48.142;11.616;2023-05-07T02:39:42;14.70;99.90
4904;DHT22;2467;48.142;11.616;2023-05-07T02:40:14;14.70;99.90
4904;DHT22;2467;48.142;11.616;2023-05-07T02:40:47;14.70;99.90
4904;DHT22;2467;48.142;11.616;2023-05-07T02:41:19;14.70;99.90
4904;DHT22;2467;48.142;11.616;2023-05-07T02:41:51;14.70;99.90
4904;DHT22;2467;48.142;11.616;2023-05-07T02:42:24;14.70;99.90
4904;DHT22;2467;48.142;11.616;2023-05-07T02:42:56;14.70;99.90
4904;DHT22;2467;48.142;11.616;2023-05-07T02:43:28;14.70;99.90
4904;DHT22;2467;48.142;11.616;2023-05-07T02:44:01;14.70;99.90
4904;DHT22;2467;48.142;11.616;2023-05-07T02:44:32;14.60;99.90
4904;DHT22;2467;48.142;11.616;2023-05-07T02:45:05;14.60;99.90
4904;DHT22;2467;48.142;11.616;2023-05-07T02:45:38;14.70;99.90
4904;DHT22;2467;48.142;11.616;2023-05-07T02:46:10;14.60;99.90
4904;DHT22;2467;48.142;11.616;2023-05-07T02:46:42;14.70;99.90
4904;DHT22;2467;48.142;11.616;2023-05-07T02:47:15;14.60;99.90
4904;DHT22;2467;48.142;11.616;2023-05-07T02:47:47;14.60;99.90
4904;DHT22;2467;48.142;11.616;2023-05-07T02:48:19;14.70;99.90
4904;DHT22;2467;48.142;11.616;2023-05-07T02:48:51;14.70;99.90
4904;DHT22;2467;48.142;11.616;2023-05-07T02:49:23;14.70;99.90
4904;DHT22;2467;48.142;11.616;2023-05-07T02:49:55;14.70;99.90
4904;DHT22;2467;48.142;11.616;2023-05-07T02:50:28;14.70;99.90
4904;DHT22;2467;48.142;11.616;2023-05-07T02:51:01;14.70;99.90
4904;DHT22;2467;48.142;11.616;2023-05-07T02:51:33;14.80;99.90
4904;DHT22;2467;48.142;11.616;2023-05-07T02:52:06;14.60;99.90
4904;DHT22;2467;48.142;11.616;2023-05-07T02:52:38;14.60;99.90
4904;DHT22;2467;48.142;11.616;2023-05-07T02:53:10;14.60;99.90
4904;DHT22;2467;48.142;11.616;2023-05-07T02:53:44;14.60;99.90
4904;DHT22;2467;48.142;11.616;2023-05-07T02:54:16;14.60;99.90
4904;DHT22;2467;48.142;11.616;2023-05-07T02:54:49;14.60;99.90
4904;DHT22;2467;48.142;11.616;2023-05-07T02:55:21;14.60;99.90
4904;DHT22;2467;48.142;11.616;2023-05-07T02:55:54;14.60;99.90
4904;DHT22;2467;48.142;11.616;2023-05-07T02:56:26;14.60;99.90
4904;DHT22;2467;48.142;11.616;2023-05-07T02:56:58;14.70;99.90
4904;DHT22;2467;48.142;11.616;2023-05-07T02:57:32;14.70;99.90
4904;DHT22;2467;48.142;11.616;2023-05-07T02:58:04;14.70;99.90
4904;DHT22;2467;48.142;11.616;2023-05-07T02:58:36;14.70;99.90
4904;DHT22;2467;48.142;11.616;2023-05-07T02:59:10;14.70;99.90
4904;DHT22;2467;48.142;11.616;2023-05-07T02:59:42;14.70;99.90
4904;DHT22;2467;48.142;11.616;2023-05-07T03:00:17;14.70;99.90
4904;DHT22;2467;48.142;11.616;2023-05-07T03:00:50;14.70;99.90
4904;DHT22;2467;48.142;11.616;2023-05-07T03:01:22;14.70;99.90
4904;DHT22;2467;48.142;11.616;2023-05-07T03:01:54;14.70;99.90
4904;DHT22;2467;48.142;11.616;2023-05-07T03:02:26;14.70;99.90
4904;DHT22;2467;48.142;11.616;2023-05-07T03:02:58;14.70;99.90
4904;DHT22;2467;48.142;11.616;2023-05-07T03:03:30;14.70;99.90
4904;DHT22;2467;48.142;11.616;2023-05-07T03:04:03;14.70;99.90
4904;DHT22;2467;48.142;11.616;2023-05-07T03:04:35;14.70;99.90
4904;DHT22;2467;48.142;11.616;2023-05-07T03:05:07;14.70;99.90
4904;DHT22;2467;48.142;11.616;2023-05-07T03:05:40;14.70;99.90
4904;DHT22;2467;48.142;11.616;2023-05-07T03:06:12;14.60;99.90
4904;DHT22;2467;48.142;11.616;2023-05-07T03:06:44;14.60;99.90
4904;DHT22;2467;48.142;11.616;2023-05-07T03:07:17;14.60;99.90
4904;DHT22;2467;48.142;11.616;2023-05-07T03:07:49;14.60;99.90
4904;DHT22;2467;48.142;11.616;2023-05-07T03:08:20;14.60;99.90
4904;DHT22;2467;48.142;11.616;2023-05-07T03:08:55;14.60;99.90
4904;DHT22;2467;48.142;11.616;2023-05-07T03:09:26;14.50;99.90
4904;DHT22;2467;48.142;11.616;2023-05-07T03:09:58;14.50;99.90
4904;DHT22;2467;48.142;11.616;2023-05-07T03:10:32;14.60;99.90
4904;DHT22;2467;48.142;11.616;2023-05-07T03:11:03;14.50;99.90
4904;DHT22;2467;48.142;11.616;2023-05-07T03:11:35;14.60;99.90
4904;DHT22;2467;48.142;11.616;2023-05-07T03:12:08;14.60;99.90
4904;DHT22;2467;48.142;11.616;2023-05-07T03:12:40;14.60;99.90
4904;DHT22;2467;48.142;11.616;2023-05-07T03:13:12;14.60;99.90
4904;DHT22;2467;48.142;11.616;2023-05-07T03:13:45;14.60;99.90
4904;DHT22;2467;48.142;11.616;2023-05-07T03:14:17;14.70;99.90
4904;DHT22;2467;48.142;11.616;2023-05-07T03:14:49;14.60;99.90
4904;DHT22;2467;48.142;11.616;2023-05-07T03:15:22;14.60;99.90
4904;DHT22;2467;48.142;11.616;2023-05-07T03:15:54;14.60;99.90
4904;DHT22;2467;48.142;11.616;2023-05-07T03:16:26;14.60;99.90
4904;DHT22;2467;48.142;11.616;2023-05-07T03:16:58;14.60;99.90
4904;DHT22;2467;48.142;11.616;2023-05-07T03:17:31;14.60;99.90
4904;DHT22;2467;48.142;11.616;2023-05-07T03:18:03;14.60;99.90
4904;DHT22;2467;48.142;11.616;2023-05-07T03:18:35;14.60;99.90
4904;DHT22;2467;48.142;11.616;2023-05-07T03:19:08;14.60;99.90
4904;DHT22;2467;48.142;11.616;2023-05-07T03:19:40;14.60;99.90
4904;DHT22;2467;48.142;11.616;2023-05-07T03:20:11;14.60;99.90
4904;DHT22;2467;48.142;11.616;2023-05-07T03:20:45;14.60;99.90
4904;DHT22;2467;48.142;11.616;2023-05-07T03:21:17;14.60;99.90
4904;DHT22;2467;48.142;11.616;2023-05-07T03:21:49;14.60;99.90
4904;DHT22;2467;48.142;11.616;2023-05-07T03:22:22;14.60;99.90
4904;DHT22;2467;48.142;11.616;2023-05-07T03:22:54;14.60;99.90
4904;DHT22;2467;48.142;11.616;2023-05-07T03:23:26;14.60;99.90
4904;DHT22;2467;48.142;11.616;2023-05-07T03:24:00;14.60;99.90
4904;DHT22;2467;48.142;11.616;2023-05-07T03:24:32;14.60;99.90
4904;DHT22;2467;48.142;11.616;2023-05-07T03:25:05;14.60;99.90
4904;DHT22;2467;48.142;11.616;2023-05-07T03:25:38;14.60;99.90
4904;DHT22;2467;48.142;11.616;2023-05-07T03:26:10;14.60;99.90
4904;DHT22;2467;48.142;11.616;2023-05-07T03:26:41;14.60;99.90
4904;DHT22;2467;48.142;11.616;2023-05-07T03:27:14;14.60;99.90
4904;DHT22;2467;48.142;11.616;2023-05-07T03:27:46;14.60;99.90
4904;DHT22;2467;48.142;11.616;2023-05-07T03:28:18;14.50;99.90
4904;DHT22;2467;48.142;11.616;2023-05-07T03:28:50;14.60;99.90
4904;DHT22;2467;48.142;11.616;2023-05-07T03:29:23;14.60;99.90
4904;DHT22;2467;48.142;11.616;2023-05-07T03:29:54;14.60;99.90